METAR Data
IDs: Format: Raw Decoded Include TAF

Data at: 0308 UTC 29 May 2022

PAIN 290256Z AUTO 27003KT 10SM BKN100 19/M02 A2985 RMK AO2 SLP124 T01941017 56006